createdAt,value
2017-11-11T00:00:08.502Z,955.8
2017-11-11T00:01:08.516Z,955.92
2017-11-11T00:02:08.540Z,955.91
2017-11-11T00:03:08.549Z,955.82
2017-11-11T00:04:08.563Z,955.87
2017-11-11T00:05:08.582Z,955.85
2017-11-11T00:06:08.593Z,955.89
2017-11-11T00:07:08.658Z,955.89
2017-11-11T00:08:08.625Z,955.84
2017-11-11T00:09:08.641Z,955.8
2017-11-11T00:10:08.655Z,955.88
2017-11-11T00:11:08.677Z,955.9
2017-11-11T00:12:08.684Z,955.92
2017-11-11T00:13:08.709Z,955.82
2017-11-11T00:14:08.716Z,955.88
2017-11-11T00:15:08.731Z,955.84
2017-11-11T00:16:08.746Z,955.77
2017-11-11T00:17:08.760Z,955.82
2017-11-11T00:18:08.778Z,955.74
2017-11-11T00:19:08.792Z,955.74
2017-11-11T00:20:08.807Z,955.81
2017-11-11T00:21:08.843Z,955.86
2017-11-11T00:22:08.888Z,955.79
2017-11-11T00:23:08.856Z,955.8
2017-11-11T00:24:08.868Z,955.83
2017-11-11T00:25:08.885Z,955.81
2017-11-11T00:26:08.899Z,955.9
2017-11-11T00:27:08.913Z,955.89
2017-11-11T00:28:08.929Z,955.84
2017-11-11T00:29:08.946Z,955.85
2017-11-11T00:30:08.962Z,955.77
2017-11-11T00:31:08.976Z,955.76
2017-11-11T00:32:08.990Z,955.94
2017-11-11T00:33:09.006Z,955.81
2017-11-11T00:34:09.022Z,955.85
2017-11-11T00:35:09.036Z,955.82
2017-11-11T00:36:09.053Z,955.79
2017-11-11T00:37:09.117Z,955.82
2017-11-11T00:38:09.083Z,955.83
2017-11-11T00:39:09.099Z,955.87
2017-11-11T00:40:09.114Z,955.92
2017-11-11T00:41:09.135Z,955.86
2017-11-11T00:42:09.145Z,955.97
2017-11-11T00:43:09.161Z,955.88
2017-11-11T00:44:09.175Z,955.91
2017-11-11T00:45:09.189Z,955.88
2017-11-11T00:46:09.207Z,955.97
2017-11-11T00:47:09.221Z,956.03
2017-11-11T00:48:09.236Z,955.89
2017-11-11T00:49:09.252Z,955.85
2017-11-11T00:50:09.270Z,956.01
2017-11-11T00:51:09.285Z,955.98
2017-11-11T00:52:09.296Z,955.98
2017-11-11T00:53:09.315Z,955.9
2017-11-11T00:54:09.331Z,955.96
2017-11-11T00:55:09.345Z,955.91
2017-11-11T00:56:09.366Z,955.94
2017-11-11T00:57:09.376Z,955.96
2017-11-11T00:58:09.393Z,955.89
2017-11-11T00:59:09.408Z,955.89
2017-11-11T01:00:09.433Z,955.92
2017-11-11T01:01:09.440Z,955.96
2017-11-11T01:02:09.818Z,955.9
2017-11-11T01:03:09.470Z,955.97
2017-11-11T01:04:09.486Z,955.86
2017-11-11T01:05:09.502Z,955.93
2017-11-11T01:06:09.517Z,956.01
2017-11-11T01:07:09.548Z,956.06
2017-11-11T01:08:09.549Z,956.02
2017-11-11T01:09:09.564Z,956.05
2017-11-11T01:10:09.581Z,956.02
2017-11-11T01:11:09.595Z,956.02
2017-11-11T01:12:09.611Z,955.99
2017-11-11T01:13:09.626Z,956.01
2017-11-11T01:14:09.640Z,956.07
2017-11-11T01:15:09.656Z,956
2017-11-11T01:16:09.674Z,956
2017-11-11T01:17:09.687Z,956.24
2017-11-11T01:18:09.703Z,956.09
2017-11-11T01:19:09.724Z,956.04
2017-11-11T01:20:09.735Z,956.03
2017-11-11T01:21:09.750Z,956.05
2017-11-11T01:22:09.766Z,956.14
2017-11-11T01:23:09.781Z,956.08
2017-11-11T01:24:09.798Z,956.13
2017-11-11T01:25:09.816Z,956.07
2017-11-11T01:26:09.827Z,956.1
2017-11-11T01:27:09.844Z,956.05
2017-11-11T01:28:09.860Z,956.09
2017-11-11T01:29:09.876Z,956.01
2017-11-11T01:30:09.891Z,956.15
2017-11-11T01:31:09.907Z,956.14
2017-11-11T01:32:09.923Z,956.2
2017-11-11T01:33:09.938Z,956.08
2017-11-11T01:34:09.960Z,956.16
2017-11-11T01:35:09.970Z,956.09
2017-11-11T01:36:09.985Z,956.1
2017-11-11T01:37:10.002Z,956.08
2017-11-11T01:38:10.018Z,956.16
2017-11-11T01:39:10.033Z,956.11
2017-11-11T01:40:10.048Z,956.13
2017-11-11T01:41:10.064Z,956.09
2017-11-11T01:42:10.080Z,956.14
2017-11-11T01:43:10.097Z,956.18
2017-11-11T01:44:10.113Z,956.18
2017-11-11T01:45:10.129Z,956.23
2017-11-11T01:46:10.144Z,956.15
2017-11-11T01:47:10.160Z,956.17
2017-11-11T01:48:10.176Z,956.18
2017-11-11T01:49:10.192Z,956.14
2017-11-11T01:50:10.215Z,956.11
2017-11-11T01:51:10.223Z,956.19
2017-11-11T01:52:10.239Z,956.15
2017-11-11T01:53:10.256Z,956.13
2017-11-11T01:54:10.270Z,956.22
2017-11-11T01:55:10.286Z,956.22
2017-11-11T01:56:10.312Z,956.18
2017-11-11T01:57:10.321Z,956.17
2017-11-11T01:58:10.332Z,956.22
2017-11-11T01:59:10.349Z,956.16
2017-11-11T02:00:10.420Z,956.16
2017-11-11T02:01:10.380Z,956.26
2017-11-11T02:02:10.396Z,956.26
2017-11-11T02:03:10.412Z,956.23
2017-11-11T02:04:10.428Z,956.23
2017-11-11T02:05:10.444Z,956.23
2017-11-11T02:06:10.459Z,956.29
2017-11-11T02:07:10.474Z,956.24
2017-11-11T02:08:10.492Z,956.27
2017-11-11T02:09:10.510Z,956.27
2017-11-11T02:10:10.523Z,956.33
2017-11-11T02:11:10.539Z,956.36
2017-11-11T02:12:10.554Z,956.36
2017-11-11T02:13:10.569Z,956.37
2017-11-11T02:14:10.585Z,956.44
2017-11-11T02:15:10.652Z,956.37
2017-11-11T02:16:10.616Z,956.38
2017-11-11T02:17:10.633Z,956.37
2017-11-11T02:18:10.665Z,956.39
2017-11-11T02:19:10.666Z,956.34
2017-11-11T02:20:10.680Z,956.36
2017-11-11T02:21:10.695Z,956.34
2017-11-11T02:22:10.712Z,956.36
2017-11-11T02:23:10.727Z,956.31
2017-11-11T02:24:10.743Z,956.37
2017-11-11T02:25:10.758Z,956.37
2017-11-11T02:26:10.773Z,956.42
2017-11-11T02:27:10.794Z,956.39
2017-11-11T02:28:10.817Z,956.39
2017-11-11T02:29:10.821Z,956.36
2017-11-11T02:30:10.845Z,956.36
2017-11-11T02:31:10.863Z,956.38
2017-11-11T02:32:10.866Z,956.38
2017-11-11T02:33:10.883Z,956.39
2017-11-11T02:34:10.898Z,956.4
2017-11-11T02:35:10.915Z,956.35
2017-11-11T02:36:10.929Z,956.38
2017-11-11T02:37:10.944Z,956.33
2017-11-11T02:38:10.960Z,956.33
2017-11-11T02:39:10.976Z,956.33
2017-11-11T02:40:10.991Z,956.32
2017-11-11T02:41:11.005Z,956.34
2017-11-11T02:42:11.021Z,956.34
2017-11-11T02:43:11.037Z,956.32
2017-11-11T02:44:11.054Z,956.34
2017-11-11T02:45:11.072Z,956.33
2017-11-11T02:46:11.084Z,956.33
2017-11-11T02:47:11.099Z,956.32
2017-11-11T02:48:11.114Z,956.34
2017-11-11T02:49:11.178Z,956.35
2017-11-11T02:50:11.143Z,956.3
2017-11-11T02:51:11.159Z,956.27
2017-11-11T02:52:11.176Z,956.31
2017-11-11T02:53:11.191Z,956.3
2017-11-11T02:54:11.206Z,956.3
2017-11-11T02:55:11.222Z,956.35
2017-11-11T02:56:11.238Z,956.3
2017-11-11T02:57:11.256Z,956.24
2017-11-11T02:58:11.268Z,956.25
2017-11-11T02:59:11.283Z,956.23
2017-11-11T03:00:11.298Z,956.26
2017-11-11T03:01:11.312Z,956.25
2017-11-11T03:02:11.329Z,956.2
2017-11-11T03:03:11.344Z,956.23
2017-11-11T03:04:11.358Z,956.27
2017-11-11T03:05:11.423Z,956.26
2017-11-11T03:06:11.388Z,956.29
2017-11-11T03:07:11.404Z,956.3
2017-11-11T03:08:11.420Z,956.22
2017-11-11T03:09:11.435Z,956.27
2017-11-11T03:10:11.449Z,956.29
2017-11-11T03:11:11.465Z,956.31
2017-11-11T03:12:11.482Z,956.3
2017-11-11T03:13:11.496Z,956.26
2017-11-11T03:14:11.511Z,956.23
2017-11-11T03:15:11.528Z,956.25
2017-11-11T03:16:11.540Z,956.23
2017-11-11T03:17:11.556Z,956.25
2017-11-11T03:18:11.572Z,956.22
2017-11-11T03:19:11.586Z,956.19
2017-11-11T03:20:11.654Z,956.13
2017-11-11T03:21:11.617Z,956.11
2017-11-11T03:22:11.632Z,956.14
2017-11-11T03:23:11.647Z,956.16
2017-11-11T03:24:11.665Z,956.15
2017-11-11T03:25:11.677Z,956.09
2017-11-11T03:26:11.692Z,956.18
2017-11-11T03:27:11.707Z,956.16
2017-11-11T03:28:11.722Z,956.2
2017-11-11T03:29:11.737Z,956.16
2017-11-11T03:30:11.754Z,956.16
2017-11-11T03:31:11.785Z,956.15
2017-11-11T03:32:11.783Z,956.12
2017-11-11T03:33:11.798Z,956.13
2017-11-11T03:34:11.814Z,956.11
2017-11-11T03:35:11.879Z,956.09
2017-11-11T03:36:11.844Z,956.12
2017-11-11T03:37:11.860Z,956.13
2017-11-11T03:38:11.875Z,956.11
2017-11-11T03:39:11.889Z,956.18
2017-11-11T03:40:11.903Z,956.22
2017-11-11T03:41:11.927Z,956.14
2017-11-11T03:42:11.935Z,956.19
2017-11-11T03:43:11.950Z,956.18
2017-11-11T03:44:11.964Z,956.21
2017-11-11T03:45:11.979Z,956.18
2017-11-11T03:46:11.996Z,956.2
2017-11-11T03:47:12.012Z,956.18
2017-11-11T03:48:12.026Z,956.19
2017-11-11T03:49:12.042Z,956.23
2017-11-11T03:50:12.056Z,956.29
2017-11-11T03:51:12.070Z,956.25
2017-11-11T03:52:12.085Z,956.26
2017-11-11T03:53:12.101Z,956.29
2017-11-11T03:54:12.117Z,956.28
2017-11-11T03:55:12.137Z,956.26
2017-11-11T03:56:12.146Z,956.32
2017-11-11T03:57:12.165Z,956.26
2017-11-11T03:58:12.178Z,956.32
2017-11-11T03:59:12.197Z,956.38
2017-11-11T04:00:12.207Z,956.3
2017-11-11T04:01:12.222Z,956.29
2017-11-11T04:02:12.238Z,956.32
2017-11-11T04:03:12.252Z,956.2
2017-11-11T04:04:12.267Z,956.24
2017-11-11T04:05:12.281Z,956.19
2017-11-11T04:06:12.297Z,956.26
2017-11-11T04:07:12.311Z,956.28
2017-11-11T04:08:12.326Z,956.35
2017-11-11T04:09:12.341Z,956.37
2017-11-11T04:10:12.356Z,956.41
2017-11-11T04:11:12.371Z,956.35
2017-11-11T04:12:12.386Z,956.35
2017-11-11T04:13:12.401Z,956.33
2017-11-11T04:14:12.416Z,956.34
2017-11-11T04:15:12.430Z,956.3
2017-11-11T04:16:12.445Z,956.29
2017-11-11T04:17:12.458Z,956.31
2017-11-11T04:18:12.473Z,956.35
2017-11-11T04:19:12.488Z,956.32
2017-11-11T04:20:12.502Z,956.32
2017-11-11T04:21:12.516Z,956.3
2017-11-11T04:22:12.556Z,956.27
2017-11-11T04:23:12.547Z,956.26
2017-11-11T04:24:12.560Z,956.31
2017-11-11T04:25:12.606Z,956.28
2017-11-11T04:26:12.589Z,956.22
2017-11-11T04:27:12.604Z,956.29
2017-11-11T04:28:12.618Z,956.23
2017-11-11T04:29:12.632Z,956.25
2017-11-11T04:30:12.648Z,956.25
2017-11-11T04:31:12.663Z,956.25
2017-11-11T04:32:12.682Z,956.25
2017-11-11T04:33:12.690Z,956.2
2017-11-11T04:34:12.706Z,956.21
2017-11-11T04:35:12.718Z,956.16
2017-11-11T04:36:12.734Z,956.18
2017-11-11T04:37:12.749Z,956.13
2017-11-11T04:38:12.764Z,956.17
2017-11-11T04:39:12.782Z,956.18
2017-11-11T04:40:12.792Z,956.13
2017-11-11T04:41:12.807Z,956.21
2017-11-11T04:42:12.821Z,956.21
2017-11-11T04:43:12.835Z,956.24
2017-11-11T04:44:12.850Z,956.17
2017-11-11T04:45:12.865Z,956.23
2017-11-11T04:46:12.886Z,956.17
2017-11-11T04:47:12.892Z,956.18
2017-11-11T04:48:12.906Z,956.15
2017-11-11T04:49:12.922Z,956.16
2017-11-11T04:50:12.935Z,956.15
2017-11-11T04:51:12.973Z,956.19
2017-11-11T04:52:12.964Z,956.17
2017-11-11T04:53:12.978Z,956.21
2017-11-11T04:54:12.994Z,956.19
2017-11-11T04:55:13.009Z,956.23
2017-11-11T04:56:13.024Z,956.22
2017-11-11T04:57:13.037Z,956.15
2017-11-11T04:58:13.052Z,956.18
2017-11-11T04:59:13.066Z,956.2
2017-11-11T05:00:13.081Z,956.25
2017-11-11T05:01:13.094Z,956.21
2017-11-11T05:02:13.111Z,956.26
2017-11-11T05:03:13.132Z,956.19
2017-11-11T05:04:13.138Z,956.21
2017-11-11T05:05:13.152Z,956.22
2017-11-11T05:06:13.168Z,956.23
2017-11-11T05:07:13.188Z,956.21
2017-11-11T05:08:13.200Z,956.18
2017-11-11T05:09:13.209Z,956.18
2017-11-11T05:10:13.225Z,956.15
2017-11-11T05:11:13.239Z,956.17
2017-11-11T05:12:13.252Z,956.15
2017-11-11T05:13:13.273Z,956.12
2017-11-11T05:14:13.331Z,956.13
2017-11-11T05:15:13.294Z,956.12
2017-11-11T05:16:13.309Z,956.14
2017-11-11T05:17:13.323Z,956.16
2017-11-11T05:18:13.337Z,956.15
2017-11-11T05:19:13.368Z,956.17
2017-11-11T05:20:13.369Z,956.15
2017-11-11T05:21:13.380Z,956.16
2017-11-11T05:22:13.396Z,956.17
2017-11-11T05:23:13.408Z,956.19
2017-11-11T05:24:13.424Z,956.19
2017-11-11T05:25:13.437Z,956.14
2017-11-11T05:26:13.450Z,956.13
2017-11-11T05:27:13.469Z,956.12
2017-11-11T05:28:13.480Z,956.14
2017-11-11T05:29:13.494Z,956.17
2017-11-11T05:30:13.507Z,956.17
2017-11-11T05:31:13.523Z,956.13
2017-11-11T05:32:13.538Z,956.13
2017-11-11T05:33:13.552Z,956.15
2017-11-11T05:34:13.565Z,956.14
2017-11-11T05:35:13.580Z,956.17
2017-11-11T05:36:13.595Z,956.17
2017-11-11T05:37:13.607Z,956.12
2017-11-11T05:38:13.623Z,956.21
2017-11-11T05:39:13.638Z,956.14
2017-11-11T05:40:13.651Z,956.11
2017-11-11T05:41:13.665Z,956.05
2017-11-11T05:42:13.681Z,956.07
2017-11-11T05:43:13.698Z,956.07
2017-11-11T05:44:13.713Z,956.12
2017-11-11T05:45:13.724Z,956.13
2017-11-11T05:46:13.738Z,956.13
2017-11-11T05:47:13.754Z,956.11
2017-11-11T05:48:13.767Z,956.16
2017-11-11T05:49:13.781Z,956.13
2017-11-11T05:50:13.797Z,956.16
2017-11-11T05:51:13.811Z,956.08
2017-11-11T05:52:13.826Z,956.1
2017-11-11T05:53:13.840Z,956.08
2017-11-11T05:54:13.855Z,956.03
2017-11-11T05:55:13.870Z,956.05
2017-11-11T05:56:13.894Z,956.03
2017-11-11T05:57:13.901Z,956.06
2017-11-11T05:58:13.914Z,956.05
2017-11-11T05:59:13.928Z,956.09
2017-11-11T06:00:13.945Z,956.09
2017-11-11T06:01:13.959Z,956.12
2017-11-11T06:02:13.973Z,956.14
2017-11-11T06:03:13.988Z,956.05
2017-11-11T06:04:14.005Z,956.06
2017-11-11T06:05:14.018Z,956.02
2017-11-11T06:06:14.034Z,956.08
2017-11-11T06:07:14.047Z,956.05
2017-11-11T06:08:14.064Z,956.04
2017-11-11T06:09:14.077Z,956.03
2017-11-11T06:10:14.092Z,956.05
2017-11-11T06:11:14.107Z,956.07
2017-11-11T06:12:14.121Z,956.06
2017-11-11T06:13:14.138Z,956.1
2017-11-11T06:14:14.151Z,956.08
2017-11-11T06:15:14.168Z,956.11
2017-11-11T06:16:14.182Z,956.05
2017-11-11T06:17:14.198Z,956.01
2017-11-11T06:18:14.228Z,956.05
2017-11-11T06:19:14.229Z,956.1
2017-11-11T06:20:14.242Z,956.07
2017-11-11T06:21:14.258Z,956.08
2017-11-11T06:22:14.274Z,956.11
2017-11-11T06:23:14.289Z,956.1
2017-11-11T06:24:14.305Z,956.15
2017-11-11T06:25:14.319Z,956.18
2017-11-11T06:26:14.335Z,956.12
2017-11-11T06:27:14.352Z,956.15
2017-11-11T06:28:14.365Z,956.16
2017-11-11T06:29:14.381Z,956.17
2017-11-11T06:30:14.396Z,956.22
2017-11-11T06:31:14.411Z,956.26
2017-11-11T06:32:14.431Z,956.28
2017-11-11T06:33:14.450Z,956.29
2017-11-11T06:34:14.458Z,956.33
2017-11-11T06:35:14.474Z,956.32
2017-11-11T06:36:14.487Z,956.31
2017-11-11T06:37:14.506Z,956.29
2017-11-11T06:38:14.518Z,956.34
2017-11-11T06:39:14.534Z,956.3
2017-11-11T06:40:14.550Z,956.35
2017-11-11T06:41:14.566Z,956.43
2017-11-11T06:42:14.580Z,956.45
2017-11-11T06:43:14.594Z,956.41
2017-11-11T06:44:14.611Z,956.45
2017-11-11T06:45:14.627Z,956.53
2017-11-11T06:46:14.642Z,956.51
2017-11-11T06:47:14.658Z,956.51
2017-11-11T06:48:14.683Z,956.49
2017-11-11T06:49:14.687Z,956.49
2017-11-11T06:50:14.703Z,956.47
2017-11-11T06:51:14.720Z,956.51
2017-11-11T06:52:14.733Z,956.51
2017-11-11T06:53:14.748Z,956.46
2017-11-11T06:54:14.764Z,956.45
2017-11-11T06:55:14.781Z,956.4
2017-11-11T06:56:14.796Z,956.43
2017-11-11T06:57:14.812Z,956.4
2017-11-11T06:58:14.827Z,956.45
2017-11-11T06:59:14.842Z,956.45
2017-11-11T07:00:14.858Z,956.38
2017-11-11T07:01:14.872Z,956.37
2017-11-11T07:02:14.896Z,956.41
2017-11-11T07:03:14.905Z,956.43
2017-11-11T07:04:14.920Z,956.49
2017-11-11T07:05:14.935Z,956.52
2017-11-11T07:06:14.949Z,956.5
2017-11-11T07:07:15.066Z,956.45
2017-11-11T07:08:14.982Z,956.41
2017-11-11T07:09:14.997Z,956.44
2017-11-11T07:10:15.012Z,956.42
2017-11-11T07:11:15.028Z,956.4
2017-11-11T07:12:15.042Z,956.41
2017-11-11T07:13:15.059Z,956.45
2017-11-11T07:14:15.074Z,956.46
2017-11-11T07:15:15.090Z,956.44
2017-11-11T07:16:15.105Z,956.4
2017-11-11T07:17:15.121Z,956.45
2017-11-11T07:18:15.135Z,956.42
2017-11-11T07:19:15.152Z,956.44
2017-11-11T07:20:15.166Z,956.49
2017-11-11T07:21:15.182Z,956.48
2017-11-11T07:22:15.246Z,956.49
2017-11-11T07:23:15.213Z,956.49
2017-11-11T07:24:15.228Z,956.5
2017-11-11T07:25:15.248Z,956.48
2017-11-11T07:26:15.262Z,956.49
2017-11-11T07:27:15.273Z,956.49
2017-11-11T07:28:15.292Z,956.51
2017-11-11T07:29:15.305Z,956.43
2017-11-11T07:30:15.325Z,956.46
2017-11-11T07:31:15.348Z,956.49
2017-11-11T07:32:15.352Z,956.49
2017-11-11T07:33:15.368Z,956.49
2017-11-11T07:34:15.381Z,956.52
2017-11-11T07:35:15.398Z,956.55
2017-11-11T07:36:15.413Z,956.54
2017-11-11T07:37:15.429Z,956.54
2017-11-11T07:38:15.544Z,956.53
2017-11-11T07:39:15.459Z,956.5
2017-11-11T07:40:15.474Z,956.54
2017-11-11T07:41:15.491Z,956.5
2017-11-11T07:42:15.507Z,956.48
2017-11-11T07:43:15.521Z,956.49
2017-11-11T07:44:15.547Z,956.5
2017-11-11T07:45:15.551Z,956.43
2017-11-11T07:46:15.569Z,956.46
2017-11-11T07:47:15.589Z,956.42
2017-11-11T07:48:15.599Z,956.44
2017-11-11T07:49:15.614Z,956.48
2017-11-11T07:50:15.630Z,956.45
2017-11-11T07:51:15.646Z,956.48
2017-11-11T07:52:15.662Z,956.5
2017-11-11T07:53:15.726Z,956.48
2017-11-11T07:54:15.693Z,956.48
2017-11-11T07:55:15.709Z,956.49
2017-11-11T07:56:15.724Z,956.58
2017-11-11T07:57:15.742Z,956.6
2017-11-11T07:58:15.791Z,956.53
2017-11-11T07:59:15.771Z,956.49
2017-11-11T08:00:15.787Z,956.44
2017-11-11T08:01:15.802Z,956.44
2017-11-11T08:02:15.817Z,956.44
2017-11-11T08:03:15.834Z,956.45
2017-11-11T08:04:15.849Z,956.5
2017-11-11T08:05:15.865Z,956.45
2017-11-11T08:06:15.882Z,956.42
2017-11-11T08:07:15.897Z,956.43
2017-11-11T08:08:15.913Z,956.41
2017-11-11T08:09:15.993Z,956.41
2017-11-11T08:10:15.951Z,956.36
2017-11-11T08:11:15.961Z,956.35
2017-11-11T08:12:15.977Z,956.3
2017-11-11T08:13:15.993Z,956.29
2017-11-11T08:14:16.007Z,956.25
2017-11-11T08:15:16.023Z,956.26
2017-11-11T08:16:16.041Z,956.3
2017-11-11T08:17:16.056Z,956.26
2017-11-11T08:18:16.071Z,956.26
2017-11-11T08:19:16.087Z,956.27
2017-11-11T08:20:16.104Z,956.31
2017-11-11T08:21:16.130Z,956.29
2017-11-11T08:22:16.134Z,956.27
2017-11-11T08:23:16.152Z,956.24
2017-11-11T08:24:16.218Z,956.19
2017-11-11T08:25:16.183Z,956.14
2017-11-11T08:26:16.200Z,956.13
2017-11-11T08:27:16.215Z,956.13
2017-11-11T08:28:16.237Z,956.14
2017-11-11T08:29:16.248Z,956.15
2017-11-11T08:30:16.268Z,956.1
2017-11-11T08:31:16.281Z,956.11
2017-11-11T08:32:16.296Z,956.07
2017-11-11T08:33:16.313Z,956.06
2017-11-11T08:34:16.328Z,956.09
2017-11-11T08:35:16.345Z,956.05
2017-11-11T08:36:16.361Z,956.06
2017-11-11T08:37:16.393Z,956.08
2017-11-11T08:38:16.395Z,956.08
2017-11-11T08:39:16.460Z,956.06
2017-11-11T08:40:16.427Z,956.05
2017-11-11T08:41:16.442Z,955.96
2017-11-11T08:42:16.460Z,956.01
2017-11-11T08:43:16.476Z,956
2017-11-11T08:44:16.495Z,955.96
2017-11-11T08:45:16.508Z,955.94
2017-11-11T08:46:16.525Z,955.97
2017-11-11T08:47:16.541Z,955.93
2017-11-11T08:48:16.557Z,955.93
2017-11-11T08:49:16.574Z,955.85
2017-11-11T08:50:16.592Z,955.85
2017-11-11T08:51:16.607Z,955.81
2017-11-11T08:52:16.623Z,955.83
2017-11-11T08:53:16.639Z,955.82
2017-11-11T08:54:16.657Z,955.85
2017-11-11T08:55:16.671Z,955.85
2017-11-11T08:56:16.738Z,955.86
2017-11-11T08:57:16.704Z,955.83
2017-11-11T08:58:16.721Z,955.85
2017-11-11T08:59:16.755Z,955.81
2017-11-11T09:00:16.754Z,955.83
2017-11-11T09:01:16.771Z,955.78
2017-11-11T09:02:16.787Z,955.83
2017-11-11T09:03:16.803Z,955.85
2017-11-11T09:04:16.819Z,955.77
2017-11-11T09:05:16.838Z,955.72
2017-11-11T09:06:16.853Z,955.74
2017-11-11T09:07:16.870Z,955.78
2017-11-11T09:08:16.887Z,955.75
2017-11-11T09:09:16.901Z,955.69
2017-11-11T09:10:16.922Z,955.68
2017-11-11T09:11:16.940Z,955.72
2017-11-11T09:12:16.952Z,955.67
2017-11-11T09:13:16.969Z,955.68
2017-11-11T09:14:16.986Z,955.77
2017-11-11T09:15:17.002Z,955.64
2017-11-11T09:16:17.018Z,955.64
2017-11-11T09:17:17.035Z,955.63
2017-11-11T09:18:17.051Z,955.65
2017-11-11T09:19:17.069Z,955.65
2017-11-11T09:20:17.083Z,955.64
2017-11-11T09:21:17.107Z,955.54
2017-11-11T09:22:17.119Z,955.56
2017-11-11T09:23:17.135Z,955.56
2017-11-11T09:24:17.152Z,955.52
2017-11-11T09:25:17.170Z,955.5
2017-11-11T09:26:17.186Z,955.53
2017-11-11T09:27:17.204Z,955.51
2017-11-11T09:28:17.221Z,955.61
2017-11-11T09:29:17.236Z,955.56
2017-11-11T09:30:17.260Z,955.5
2017-11-11T09:31:17.282Z,955.57
2017-11-11T09:32:17.287Z,955.54
2017-11-11T09:33:17.305Z,955.48
2017-11-11T09:34:17.332Z,955.54
2017-11-11T09:35:17.338Z,955.55
2017-11-11T09:36:17.356Z,955.57
2017-11-11T09:37:17.372Z,955.55
2017-11-11T09:38:17.389Z,955.48
2017-11-11T09:39:17.407Z,955.49
2017-11-11T09:40:17.421Z,955.43
2017-11-11T09:41:17.438Z,955.44
2017-11-11T09:42:17.454Z,955.48
2017-11-11T09:43:17.473Z,955.36
2017-11-11T09:44:17.488Z,955.31
2017-11-11T09:45:17.508Z,955.29
2017-11-11T09:46:17.522Z,955.29
2017-11-11T09:47:17.537Z,955.25
2017-11-11T09:48:17.552Z,955.31
2017-11-11T09:49:17.588Z,955.22
2017-11-11T09:50:17.584Z,955.23
2017-11-11T09:51:17.601Z,955.19
2017-11-11T09:52:17.617Z,955.14
2017-11-11T09:53:17.633Z,955.17
2017-11-11T09:54:17.649Z,955.14
2017-11-11T09:55:17.669Z,955
2017-11-11T09:56:17.683Z,955.07
2017-11-11T09:57:17.697Z,955.01
2017-11-11T09:58:17.715Z,954.96
2017-11-11T09:59:17.730Z,954.82
2017-11-11T10:00:17.745Z,954.95
2017-11-11T10:01:17.762Z,954.92
2017-11-11T10:02:17.777Z,954.87
2017-11-11T10:03:17.794Z,954.83
2017-11-11T10:04:17.809Z,954.83
2017-11-11T10:05:17.824Z,954.82
2017-11-11T10:06:17.843Z,954.82
2017-11-11T10:07:17.858Z,954.81
2017-11-11T10:08:17.873Z,954.91
2017-11-11T10:09:17.888Z,954.83
2017-11-11T10:10:17.906Z,954.82
2017-11-11T10:11:17.922Z,954.81
2017-11-11T10:12:17.936Z,954.8
2017-11-11T10:13:17.953Z,954.76
2017-11-11T10:14:17.973Z,954.75
2017-11-11T10:15:17.983Z,954.74
2017-11-11T10:16:18.009Z,954.72
2017-11-11T10:17:18.016Z,954.65
2017-11-11T10:18:18.031Z,954.64
2017-11-11T10:19:18.096Z,954.63
2017-11-11T10:20:18.062Z,954.59
2017-11-11T10:21:18.078Z,954.62
2017-11-11T10:22:18.092Z,954.57
2017-11-11T10:23:18.108Z,954.54
2017-11-11T10:24:18.124Z,954.53
2017-11-11T10:25:18.141Z,954.48
2017-11-11T10:26:18.158Z,954.47
2017-11-11T10:27:18.176Z,954.44
2017-11-11T10:28:18.188Z,954.45
2017-11-11T10:29:18.203Z,954.43
2017-11-11T10:30:18.218Z,954.43
2017-11-11T10:31:18.234Z,954.4
2017-11-11T10:32:18.249Z,954.42
2017-11-11T10:33:18.265Z,954.34
2017-11-11T10:34:18.280Z,954.31
2017-11-11T10:35:18.295Z,954.31
2017-11-11T10:36:18.312Z,954.31
2017-11-11T10:37:18.326Z,954.31
2017-11-11T10:38:18.343Z,954.28
2017-11-11T10:39:18.359Z,954.26
2017-11-11T10:40:18.378Z,954.28
2017-11-11T10:41:18.389Z,954.25
2017-11-11T10:42:18.405Z,954.25
2017-11-11T10:43:18.420Z,954.21
2017-11-11T10:44:18.433Z,954.2
2017-11-11T10:45:18.451Z,954.17
2017-11-11T10:46:18.465Z,954.18
2017-11-11T10:47:18.481Z,954.15
2017-11-11T10:48:18.496Z,954.19
2017-11-11T10:49:18.512Z,954.11
2017-11-11T10:50:18.529Z,954.11
2017-11-11T10:51:18.544Z,954.04
2017-11-11T10:52:18.558Z,954.15
2017-11-11T10:53:18.574Z,954.06
2017-11-11T10:54:18.591Z,954.11
2017-11-11T10:55:18.605Z,954.07
2017-11-11T10:56:18.620Z,954.09
2017-11-11T10:57:18.635Z,954.12
2017-11-11T10:58:18.652Z,954.11
2017-11-11T10:59:18.668Z,954.06
2017-11-11T11:00:18.682Z,954.07
2017-11-11T11:01:18.699Z,954.07
2017-11-11T11:02:18.713Z,954.02
2017-11-11T11:03:18.728Z,954.02
2017-11-11T11:04:18.745Z,954.01
2017-11-11T11:05:18.761Z,954.01
2017-11-11T11:06:18.775Z,954
2017-11-11T11:07:18.791Z,953.94
2017-11-11T11:08:18.807Z,953.91
2017-11-11T11:09:18.823Z,953.88
2017-11-11T11:10:18.838Z,953.83
2017-11-11T11:11:18.865Z,953.81
2017-11-11T11:12:18.870Z,953.82
2017-11-11T11:13:18.885Z,953.8
2017-11-11T11:14:18.901Z,953.78
2017-11-11T11:15:18.915Z,953.77
2017-11-11T11:16:18.934Z,953.72
2017-11-11T11:17:18.946Z,953.7
2017-11-11T11:18:18.967Z,953.73
2017-11-11T11:19:18.978Z,953.68
2017-11-11T11:20:18.995Z,953.65
2017-11-11T11:21:19.011Z,953.63
2017-11-11T11:22:19.025Z,953.6
2017-11-11T11:23:19.047Z,953.56
2017-11-11T11:24:19.055Z,953.59
2017-11-11T11:25:19.079Z,953.52
2017-11-11T11:26:19.087Z,953.52
2017-11-11T11:27:19.115Z,953.46
2017-11-11T11:28:19.118Z,953.44
2017-11-11T11:29:19.133Z,953.42
2017-11-11T11:30:19.148Z,953.39
2017-11-11T11:31:19.165Z,953.4
2017-11-11T11:32:19.180Z,953.43
2017-11-11T11:33:19.215Z,953.32
2017-11-11T11:34:19.212Z,953.33
2017-11-11T11:35:19.227Z,953.27
2017-11-11T11:36:19.242Z,953.26
2017-11-11T11:37:19.258Z,953.26
2017-11-11T11:38:19.275Z,953.2
2017-11-11T11:39:19.296Z,953.17
2017-11-11T11:40:19.305Z,953.16
2017-11-11T11:41:19.321Z,953.1
2017-11-11T11:42:19.335Z,953.08
2017-11-11T11:43:19.351Z,953.05
2017-11-11T11:44:19.367Z,953.03
2017-11-11T11:45:19.384Z,953.07
2017-11-11T11:46:19.397Z,953.06
2017-11-11T11:47:19.413Z,953.01
2017-11-11T11:48:19.431Z,952.97
2017-11-11T11:49:19.446Z,952.97
2017-11-11T11:50:19.465Z,952.95
2017-11-11T11:51:19.475Z,953
2017-11-11T11:52:19.493Z,952.97
2017-11-11T11:53:19.508Z,952.97
2017-11-11T11:54:19.623Z,952.93
2017-11-11T11:55:19.541Z,952.88
2017-11-11T11:56:19.556Z,952.9
2017-11-11T11:57:19.571Z,952.9
2017-11-11T11:58:19.588Z,952.88
2017-11-11T11:59:19.604Z,952.87
2017-11-11T12:00:19.620Z,952.85
2017-11-11T12:01:19.660Z,952.83
2017-11-11T12:02:19.651Z,952.82
2017-11-11T12:03:19.667Z,952.79
2017-11-11T12:04:19.683Z,952.77
2017-11-11T12:05:19.699Z,952.77
2017-11-11T12:06:19.716Z,952.75
2017-11-11T12:07:19.732Z,952.72
2017-11-11T12:08:19.748Z,952.67
2017-11-11T12:09:19.814Z,952.67
2017-11-11T12:10:19.781Z,952.6
2017-11-11T12:11:19.797Z,952.56
2017-11-11T12:12:19.816Z,952.53
2017-11-11T12:13:19.829Z,952.59
2017-11-11T12:14:19.860Z,952.6
2017-11-11T12:15:19.861Z,952.57
2017-11-11T12:16:19.877Z,952.55
2017-11-11T12:17:19.898Z,952.51
2017-11-11T12:18:19.915Z,952.49
2017-11-11T12:19:19.925Z,952.51
2017-11-11T12:20:19.943Z,952.5
2017-11-11T12:21:19.959Z,952.49
2017-11-11T12:22:19.979Z,952.47
2017-11-11T12:23:19.992Z,952.38
2017-11-11T12:24:20.008Z,952.41
2017-11-11T12:25:20.024Z,952.43
2017-11-11T12:26:20.042Z,952.37
2017-11-11T12:27:20.056Z,952.3
2017-11-11T12:28:20.073Z,952.28
2017-11-11T12:29:20.090Z,952.29
2017-11-11T12:30:20.104Z,952.23
2017-11-11T12:31:20.123Z,952.24